createdAt,value
2023-04-11T00:00:04.511Z,101049.94
2023-04-11T00:05:15.122Z,101040.25
2023-04-11T00:10:19.090Z,101028.45
2023-04-11T00:15:23.993Z,101023.83
2023-04-11T00:20:27.594Z,101014.46
2023-04-11T00:25:32.568Z,101008.61
2023-04-11T00:30:36.133Z,100994.58
2023-04-11T00:35:40.313Z,100991.25
2023-04-11T00:40:45.902Z,100983.65
2023-04-11T00:45:49.993Z,100978.05
2023-04-11T00:50:54.041Z,100965.77
2023-04-11T00:55:57.713Z,100954.17
2023-04-11T01:01:01.573Z,100950.54
2023-04-11T01:06:07.692Z,100947.32
2023-04-11T01:11:12.411Z,100944.77
2023-04-11T01:16:20.707Z,100943.31
2023-04-11T01:21:26.596Z,100943.64
2023-04-11T01:26:30.403Z,100938.17
2023-04-11T01:31:33.968Z,100938.70
2023-04-11T01:36:37.697Z,100930.86
2023-04-11T01:41:43.227Z,100918.61
2023-04-11T01:46:47.330Z,100915.10
2023-04-11T01:51:51.090Z,100913.92
2023-04-11T01:56:55.339Z,100910.36
2023-04-11T02:01:59.151Z,100899.52
2023-04-11T02:07:02.831Z,100886.83
2023-04-11T02:12:06.884Z,100877.85
2023-04-11T02:17:11.266Z,100860.91
2023-04-11T02:22:15.835Z,100857.98
2023-04-11T02:27:19.427Z,100855.45
2023-04-11T02:32:23.232Z,100846.61
2023-04-11T02:37:27.420Z,100840.35
2023-04-11T02:42:31.074Z,100835.45
2023-04-11T02:47:35.999Z,100823.80
2023-04-11T02:52:42.650Z,100819.98
2023-04-11T02:57:46.931Z,100816.23
2023-04-11T03:02:51.572Z,100806.25
2023-04-11T03:07:58.418Z,100807.16
2023-04-11T03:13:03.551Z,100798.52
2023-04-11T03:18:07.828Z,100798.88
2023-04-11T03:23:14.172Z,100802.08
2023-04-11T03:28:17.829Z,100794.13
2023-04-11T03:33:21.497Z,100784.55
2023-04-11T03:38:25.724Z,100774.78
2023-04-11T03:43:29.829Z,100761.98
2023-04-11T03:48:33.904Z,100756.88
2023-04-11T03:53:41.454Z,100745.63
2023-04-11T03:58:57.402Z,100739.86
2023-04-11T04:04:05.022Z,100732.65
2023-04-11T04:09:10.130Z,100720.41
2023-04-11T04:14:23.093Z,100718.58
2023-04-11T04:19:26.981Z,100716.59
2023-04-11T04:24:31.365Z,100712.86
2023-04-11T04:29:46.673Z,100719.52
2023-04-11T04:34:57.257Z,100710.45
2023-04-11T04:40:08.618Z,100704.42
2023-04-11T04:45:20.595Z,100695.93
2023-04-11T04:50:24.371Z,100690.27
2023-04-11T04:55:28.338Z,100686.14
2023-04-11T05:00:33.203Z,100678.97
2023-04-11T05:05:37.935Z,100671.71
2023-04-11T05:10:41.854Z,100670.48
2023-04-11T05:15:48.936Z,100670.00
2023-04-11T05:20:52.630Z,100671.02
2023-04-11T05:25:58.290Z,100668.19
2023-04-11T05:31:02.085Z,100664.02
2023-04-11T05:36:07.076Z,100653.69
2023-04-11T05:41:11.677Z,100647.07
2023-04-11T05:46:15.354Z,100633.02
2023-04-11T05:51:19.317Z,100620.16
2023-04-11T05:56:22.948Z,100611.56
2023-04-11T06:01:26.711Z,100605.95
2023-04-11T06:06:31.002Z,100596.11
2023-04-11T06:11:34.765Z,100587.17
2023-04-11T06:16:38.536Z,100580.48
2023-04-11T06:21:42.136Z,100567.75
2023-04-11T06:26:45.779Z,100557.24
2023-04-11T06:31:49.717Z,100551.39
2023-04-11T06:36:53.451Z,100547.64
2023-04-11T06:41:57.041Z,100542.93
2023-04-11T06:47:02.480Z,100533.92
2023-04-11T06:52:06.516Z,100524.48
2023-04-11T06:57:10.384Z,100519.60
2023-04-11T07:02:14.256Z,100521.48
2023-04-11T07:07:20.560Z,100523.83
2023-04-11T07:12:24.209Z,100522.92
2023-04-11T07:17:27.864Z,100516.50
2023-04-11T07:22:31.508Z,100518.29
2023-04-11T07:27:35.676Z,100517.63
2023-04-11T07:32:39.323Z,100523.23
2023-04-11T07:37:42.885Z,100512.64
2023-04-11T07:42:46.976Z,100499.96
2023-04-11T07:47:50.746Z,100498.38
2023-04-11T07:52:55.284Z,100489.45
2023-04-11T07:57:58.920Z,100480.92
2023-04-11T08:03:06.242Z,100479.30
2023-04-11T08:08:10.326Z,100464.05
2023-04-11T08:13:13.843Z,100453.77
2023-04-11T08:18:20.820Z,100445.26
2023-04-11T08:23:24.473Z,100446.64
2023-04-11T08:28:28.201Z,100438.86
2023-04-11T08:33:33.456Z,100438.25
2023-04-11T08:38:37.237Z,100428.23
2023-04-11T08:43:40.773Z,100421.70
2023-04-11T08:48:44.694Z,100421.81
2023-04-11T08:53:49.213Z,100416.60
2023-04-11T08:58:52.775Z,100400.07
2023-04-11T09:03:57.317Z,100387.51
2023-04-11T09:09:04.581Z,100385.70
2023-04-11T09:14:09.412Z,100376.04
2023-04-11T09:19:24.271Z,100366.63
2023-04-11T09:24:29.073Z,100369.29
2023-04-11T09:29:45.849Z,100363.18
2023-04-11T09:34:50.165Z,100350.77
2023-04-11T12:10:15.630Z,100149.98
2023-04-11T12:15:24.929Z,100150.54
2023-04-11T12:20:32.220Z,100155.06
2023-04-11T12:25:41.116Z,100160.13
2023-04-11T12:30:48.122Z,100142.48
2023-04-11T12:35:55.130Z,100145.27
2023-04-11T12:41:26.367Z,100144.95
2023-04-11T12:46:29.601Z,100145.52
2023-04-11T12:51:36.749Z,100133.15
2023-04-11T12:56:44.216Z,100125.89
2023-04-11T13:01:51.269Z,100119.24
2023-04-11T13:07:01.603Z,100116.12
2023-04-11T13:12:09.128Z,100111.21
2023-04-11T13:17:16.529Z,100105.77
2023-04-11T13:22:23.578Z,100100.79
2023-04-11T13:27:30.879Z,100093.50
2023-04-11T13:32:38.051Z,100096.38
2023-04-11T13:37:45.183Z,100088.71
2023-04-11T13:42:52.300Z,100089.92
2023-04-11T13:47:59.438Z,100082.29
2023-04-11T13:53:06.579Z,100068.81
2023-04-11T13:58:14.468Z,100059.05
2023-04-11T14:03:21.758Z,100058.38
2023-04-11T14:08:30.318Z,100064.36
2023-04-11T14:13:37.320Z,100053.84
2023-04-11T14:18:44.837Z,100054.05
2023-04-11T14:23:52.334Z,100067.21
2023-04-11T14:28:59.386Z,100070.64
2023-04-11T14:34:06.583Z,100061.13
2023-04-11T14:39:14.051Z,100056.37
2023-04-11T14:44:21.093Z,100058.63
2023-04-11T14:49:28.121Z,100054.73
2023-04-11T14:54:35.180Z,100054.93
2023-04-11T14:59:42.996Z,100059.04
2023-04-11T15:04:48.496Z,100056.63
2023-04-11T15:09:55.637Z,100054.38
2023-04-11T15:15:04.698Z,100061.80
2023-04-11T15:20:14.707Z,100066.13
2023-04-11T15:25:22.029Z,100072.16
2023-04-11T15:30:29.117Z,100079.95
2023-04-11T15:35:35.934Z,100091.88
2023-04-11T15:40:43.112Z,100103.38
2023-04-11T15:45:50.507Z,100110.41
2023-04-11T15:50:57.611Z,100121.70
2023-04-11T15:56:07.765Z,100125.64
2023-04-11T16:01:22.930Z,100134.77
2023-04-11T16:06:31.486Z,100142.04
2023-04-11T16:11:40.493Z,100161.84
2023-04-11T16:16:48.810Z,100178.09
2023-04-11T16:21:55.870Z,100190.30
2023-04-11T16:27:02.905Z,100198.27
2023-04-11T16:32:10.643Z,100197.16
2023-04-11T16:37:17.824Z,100189.76
2023-04-11T16:42:25.405Z,100192.69
2023-04-11T16:47:32.666Z,100198.73
2023-04-11T16:52:39.698Z,100198.85
2023-04-11T16:57:46.868Z,100196.58
2023-04-11T17:02:54.058Z,100190.88
2023-04-11T17:08:01.688Z,100190.55
2023-04-11T17:13:08.780Z,100191.67
2023-04-11T17:18:16.652Z,100201.10
2023-04-11T17:23:31.994Z,100200.48
2023-04-11T17:28:47.141Z,100200.88
2023-04-11T17:33:54.585Z,100210.73
2023-04-11T17:39:02.093Z,100210.02
2023-04-11T17:44:09.375Z,100217.70
2023-04-11T17:49:16.414Z,100221.90
2023-04-11T17:55:16.254Z,100231.94
2023-04-11T18:01:00.299Z,100235.95
2023-04-11T18:06:10.167Z,100237.93
2023-04-11T18:11:18.347Z,100240.80
2023-04-11T18:16:26.328Z,100247.56
2023-04-11T18:21:32.846Z,100256.05
2023-04-11T18:26:41.117Z,100267.20
2023-04-11T18:31:49.532Z,100273.53
2023-04-11T18:36:57.678Z,100281.37
2023-04-11T18:42:04.764Z,100284.54
2023-04-11T18:47:17.010Z,100287.13
2023-04-11T18:52:27.044Z,100292.77
2023-04-11T18:57:37.988Z,100301.54
2023-04-11T19:02:47.145Z,100308.04
2023-04-11T19:07:56.134Z,100306.90
2023-04-11T19:13:04.548Z,100301.89
2023-04-11T19:18:13.015Z,100301.48
2023-04-11T19:23:21.447Z,100304.66
2023-04-11T19:28:29.571Z,100306.73
2023-04-11T19:33:39.139Z,100306.55
2023-04-11T19:38:47.753Z,100306.89
2023-04-11T19:43:56.194Z,100305.77
2023-04-11T19:49:03.788Z,100307.92
2023-04-11T19:54:10.999Z,100305.13
2023-04-11T19:59:18.355Z,100303.98
2023-04-11T20:04:28.353Z,100303.67
2023-04-11T20:09:35.717Z,100306.11
2023-04-11T20:14:44.001Z,100312.31
2023-04-11T20:19:55.675Z,100312.56
2023-04-11T20:25:03.943Z,100309.02
2023-04-11T20:30:13.307Z,100309.56
2023-04-11T20:35:20.498Z,100313.52
2023-04-11T20:40:27.755Z,100314.77
2023-04-11T20:45:36.442Z,100319.80
2023-04-11T20:50:47.317Z,100323.61
2023-04-11T20:55:54.451Z,100328.85
2023-04-11T21:01:01.736Z,100330.80
2023-04-11T21:06:10.400Z,100333.77
2023-04-11T21:11:17.631Z,100338.38
2023-04-11T21:16:24.843Z,100338.91
2023-04-11T21:21:33.599Z,100341.61
2023-04-11T21:26:41.657Z,100347.14
2023-04-11T21:31:47.158Z,100346.98
2023-04-11T21:36:54.207Z,100347.88
2023-04-11T21:42:01.510Z,100345.96
2023-04-11T21:47:08.702Z,100346.65
2023-04-11T21:52:15.822Z,100342.20
2023-04-11T21:57:22.803Z,100340.81
2023-04-11T22:02:29.891Z,100345.20
2023-04-11T22:07:47.555Z,100345.60
2023-04-11T22:12:54.849Z,100346.38
2023-04-11T22:18:03.811Z,100345.39
2023-04-11T22:23:13.233Z,100346.41
2023-04-11T22:28:20.595Z,100352.95
2023-04-11T22:33:27.806Z,100358.36
2023-04-11T22:38:35.342Z,100360.15
2023-04-11T22:43:42.809Z,100361.41
2023-04-11T22:48:49.864Z,100361.48
2023-04-11T22:53:56.871Z,100361.27
2023-04-11T22:59:04.037Z,100364.71
2023-04-11T23:04:11.321Z,100365.22
2023-04-11T23:09:19.008Z,100357.31
2023-04-11T23:14:31.336Z,100351.36
2023-04-11T23:19:38.981Z,100348.05
2023-04-11T23:24:47.095Z,100351.54
2023-04-11T23:29:54.439Z,100351.63
2023-04-11T23:35:01.949Z,100343.17
2023-04-11T23:40:14.002Z,100341.88
2023-04-11T23:45:22.741Z,100341.36
2023-04-11T23:50:29.762Z,100341.95
2023-04-11T23:55:37.159Z,100340.27
